Time;durP1;ratioP1;P1;durP2;ratioP2;P2;SDS_P1;SDS_P2;PMS_P1;PMS_P2;Temp;Humidity;BMP_temperature;BMP_pressure;BME280_temperature;BME280_humidity;BME280_pressure;Samples;Min_cycle;Max_cycle;Signal;HPM_P1;HPM_P2
2022/03/19 00:04:32;;;;;;;1999.90;999.90;;;;;;;8.37;57.84;104089.31;15656168;28;20102;-60
2022/03/19 00:12:07;;;;;;;1999.90;999.90;;;;;;;8.43;57.14;104087.50;15607656;28;20104;-60
2022/03/19 00:19:39;;;;;;;1999.90;999.90;;;;;;;8.18;56.69;104074.56;15608453;28;20045;-57
2022/03/19 00:27:12;;;;;;;1999.90;999.90;;;;;;;8.30;56.68;104080.16;15676384;28;20565;-61
2022/03/19 00:34:45;;;;;;;;;;;;;;;8.20;56.87;104089.06;15662921;28;20049;-61
2022/03/19 00:42:19;;;;;;;1999.90;999.90;;;;;;;7.97;57.00;104077.84;15679859;28;19927;-61
2022/03/19 00:49:51;;;;;;;1999.90;999.90;;;;;;;7.91;57.22;104084.31;15678299;28;20401;-60
2022/03/19 00:57:25;;;;;;;1999.90;999.90;;;;;;;7.73;57.86;104071.31;15651334;28;20050;-61
2022/03/19 01:04:57;;;;;;;;;;;;;;;7.62;57.62;104075.72;15618187;28;20048;-60
2022/03/19 01:12:30;;;;;;;1999.90;999.90;;;;;;;7.45;58.05;104075.47;15615201;28;20375;-60
2022/03/19 01:20:03;;;;;;;1999.90;999.90;;;;;;;7.51;58.34;104077.34;15651909;28;20057;-60
2022/03/19 01:27:38;;;;;;;1999.90;999.90;;;;;;;7.48;58.73;104069.44;15637451;28;20353;-61
2022/03/19 01:35:11;;;;;;;1999.90;999.90;;;;;;;7.26;59.18;104054.28;15640831;28;20041;-63
2022/03/19 01:42:47;;;;;;;1999.90;999.90;;;;;;;7.17;59.54;104058.44;15662629;28;20033;-62
2022/03/19 01:50:23;;;;;;;1999.90;999.90;;;;;;;7.04;60.29;104058.59;15613446;28;20055;-61
2022/03/19 01:58:05;;;;;;;1999.90;999.90;;;;;;;7.06;60.38;104037.81;15611705;28;20049;-61
2022/03/19 02:05:37;;;;;;;1999.90;999.90;;;;;;;6.89;61.15;104034.81;15612119;28;20038;-61
2022/03/19 02:13:11;;;;;;;1999.90;999.90;;;;;;;7.11;60.48;104028.81;15613460;28;20069;-61
2022/03/19 02:20:46;;;;;;;1999.90;999.90;;;;;;;6.62;62.12;104020.28;15673127;28;20072;-60
2022/03/19 02:28:20;;;;;;;1999.90;999.90;;;;;;;6.76;61.88;104012.69;15675705;28;20071;-60
2022/03/19 02:35:52;;;;;;;1999.90;999.90;;;;;;;6.56;62.08;104012.88;15672042;28;20040;-60
2022/03/19 02:43:25;;;;;;;1999.90;999.90;;;;;;;6.28;63.42;104015.25;15671661;28;20041;-60
2022/03/19 02:50:58;;;;;;;1999.90;999.90;;;;;;;6.03;64.07;104006.84;15672332;28;20116;-58
2022/03/19 02:58:32;;;;;;;1999.90;999.90;;;;;;;5.99;65.17;103991.75;15671776;28;20080;-61
2022/03/19 03:06:04;;;;;;;1999.90;999.90;;;;;;;5.72;66.26;103991.00;15671478;28;20056;-61
2022/03/19 03:13:38;;;;;;;1999.90;999.90;;;;;;;5.72;66.79;103979.91;15663805;28;20041;-60
2022/03/19 03:21:10;;;;;;;1999.90;999.90;;;;;;;5.76;67.16;103992.28;15629613;28;20501;-62
2022/03/19 03:28:44;;;;;;;1999.90;999.90;;;;;;;5.62;67.39;103998.94;15651891;28;20655;-59
2022/03/19 03:36:16;;;;;;;1999.90;999.90;;;;;;;5.50;67.31;103991.31;15638937;28;20049;-60
2022/03/19 03:43:51;;;;;;;1999.90;999.90;;;;;;;5.73;67.52;103989.94;15607821;28;20060;-60
2022/03/19 03:51:23;;;;;;;1999.90;999.90;;;;;;;5.64;67.73;103992.13;15620706;28;20049;-60
2022/03/19 03:58:56;;;;;;;1999.90;999.90;;;;;;;5.47;69.40;103989.00;15668758;28;20045;-61
2022/03/19 04:06:28;;;;;;;1999.90;999.90;;;;;;;5.35;69.64;103995.44;15679934;28;20045;-60
2022/03/19 04:14:02;;;;;;;1999.90;999.90;;;;;;;5.14;70.84;103989.09;15680098;28;20037;-61
2022/03/19 04:21:34;;;;;;;1999.90;999.90;;;;;;;5.15;70.90;103989.97;15681641;28;20045;-61
2022/03/19 04:29:08;;;;;;;1999.90;999.90;;;;;;;5.22;70.28;103985.25;15680506;28;20493;-60
2022/03/19 04:36:41;;;;;;;1999.90;999.90;;;;;;;5.28;69.63;103980.75;15661114;28;20382;-61
2022/03/19 04:44:16;;;;;;;1999.90;999.90;;;;;;;5.05;71.11;103973.81;15678932;28;20045;-60
2022/03/19 04:51:49;;;;;;;1999.90;999.90;;;;;;;4.82;72.09;103965.13;15679874;28;20553;-61
2022/03/19 04:59:23;;;;;;;1999.90;999.90;;;;;;;4.83;71.23;103966.81;15674070;28;20045;-59
2022/03/19 05:06:56;;;;;;;1999.90;999.90;;;;;;;4.83;71.32;103970.44;15652124;28;20128;-61
2022/03/19 05:14:29;;;;;;;1999.90;999.90;;;;;;;4.82;70.36;103968.75;15671445;28;20057;-61
2022/03/19 05:22:01;;;;;;;1999.90;999.90;;;;;;;4.80;71.06;103970.88;15640001;28;20148;-60
2022/03/19 05:29:35;;;;;;;1999.90;999.90;;;;;;;4.76;71.32;103977.88;15676749;28;20362;-60
2022/03/19 05:37:07;;;;;;;1999.90;999.90;;;;;;;4.72;71.58;103982.16;15677438;28;20064;-60
2022/03/19 05:44:43;;;;;;;1999.90;999.90;;;;;;;5.29;69.79;103975.00;15660494;28;20056;-61
2022/03/19 05:52:18;;;;;;;1999.90;999.90;;;;;;;4.86;71.21;103970.00;15675565;28;20045;-61
2022/03/19 05:59:53;;;;;;;1999.90;999.90;;;;;;;5.13;70.21;103976.34;15674908;28;20070;-60
2022/03/19 06:07:25;;;;;;;1999.90;999.90;;;;;;;5.08;71.24;103987.19;15678425;28;20498;-59
2022/03/19 06:15:00;;;;;;;1999.90;999.90;;;;;;;5.16;71.61;103989.75;15644858;28;20045;-58
2022/03/19 06:22:32;;;;;;;1999.90;999.90;;;;;;;5.33;71.18;103989.28;15611831;28;20049;-62
2022/03/19 06:30:08;;;;;;;1999.90;999.90;;;;;;;5.84;69.69;103983.72;15616656;28;20057;-62
2022/03/19 06:37:40;;;;;;;1999.90;999.90;;;;;;;6.23;68.26;103984.53;15610818;28;20037;-61
2022/03/19 06:45:13;;;;;;;1999.90;999.90;;;;;;;6.88;66.82;103990.63;15672203;28;20045;-61
2022/03/19 06:52:45;;;;;;;1999.90;999.90;;;;;;;8.30;62.53;103983.59;15643877;28;20522;-61
2022/03/19 07:00:19;;;;;;;1999.90;999.90;;;;;;;9.28;59.36;103984.03;15636368;28;20492;-61
2022/03/19 07:07:51;;;;;;;;;;;;;;;9.96;56.60;103981.25;15657498;28;20056;-60
2022/03/19 07:15:28;;;;;;;1999.90;999.90;;;;;;;9.95;57.27;103985.13;15639683;28;19927;-61
2022/03/19 07:23:02;;;;;;;1999.90;999.90;;;;;;;10.47;55.55;103979.41;15670701;28;20079;-61
2022/03/19 07:30:35;;;;;;;1999.90;999.90;;;;;;;10.18;55.95;103974.94;15610065;28;20418;-59
2022/03/19 07:38:09;;;;;;;1999.90;999.90;;;;;;;12.02;52.95;103959.72;15607260;28;20041;-61
2022/03/19 07:45:43;;;;;;;1999.90;999.90;;;;;;;11.83;51.37;103964.84;15606604;28;20132;-63
2022/03/19 07:53:15;;;;;;;1999.90;999.90;;;;;;;10.87;52.47;103968.03;15659906;28;20048;-59
2022/03/19 08:00:49;;;;;;;1999.90;999.90;;;;;;;11.95;50.63;103959.94;15647646;28;20045;-62
2022/03/19 08:08:21;;;;;;;1999.90;999.90;;;;;;;12.88;49.01;103946.41;15662722;28;20528;-58
2022/03/19 08:15:54;;;;;;;1999.90;999.90;;;;;;;14.04;46.44;103944.38;15668106;28;20037;-60
2022/03/19 08:23:31;;;;;;;1999.90;999.90;;;;;;;13.75;46.12;103949.63;15666780;28;20041;-61
2022/03/19 08:31:04;;;;;;;1999.90;999.90;;;;;;;11.91;49.18;103966.34;15660517;28;20052;-57
2022/03/19 08:46:27;;;;;;;1999.90;999.90;;;;;;;12.58;49.85;103946.22;15664736;28;20514;-60
2022/03/19 08:54:00;;;;;;;1999.90;999.90;;;;;;;13.57;46.44;103937.81;15671706;28;20037;-59
2022/03/19 09:01:33;;;;;;;1999.90;999.90;;;;;;;13.46;45.70;103938.06;15671944;28;20079;-59
2022/03/19 09:09:06;;;;;;;1999.90;999.90;;;;;;;15.22;43.46;103924.31;15677857;28;20059;-60
2022/03/19 09:16:40;;;;;;;1999.90;999.90;;;;;;;15.50;41.49;103924.72;15677505;28;20045;-61
2022/03/19 09:24:15;;;;;;;1999.90;999.90;;;;;;;15.81;41.75;103915.00;15678044;28;20073;-59
2022/03/19 09:31:48;;;;;;;1999.90;999.90;;;;;;;15.46;41.57;103901.13;15673107;28;20068;-61
2022/03/19 09:39:21;;;;;;;1999.90;999.90;;;;;;;16.48;39.66;103906.03;15638977;28;20049;-60
2022/03/19 09:46:56;;;;;;;1999.90;999.90;;;;;;;14.92;42.66;103893.47;15636778;28;20580;-61
2022/03/19 09:54:28;;;;;;;1999.90;999.90;;;;;;;15.86;40.85;103895.25;15644579;28;20116;-61
2022/03/19 10:02:05;;;;;;;1999.90;999.90;;;;;;;16.27;39.97;103900.56;15614677;28;20061;-61
2022/03/19 10:09:42;;;;;;;35.40;33.10;;;;;;;15.88;38.88;103897.78;15628761;28;20494;-61
2022/03/19 10:17:35;;;;;;;1999.90;999.90;;;;;;;15.13;40.73;103892.25;15675277;28;20178;-61
2022/03/19 10:25:09;;;;;;;47.43;44.33;;;;;;;15.54;38.61;103886.44;15679874;28;20144;-62
2022/03/19 10:32:44;;;;;;;1999.90;999.90;;;;;;;15.41;40.12;103875.78;15682546;28;20076;-62
2022/03/19 10:40:16;;;;;;;1035.82;533.45;;;;;;;12.63;41.59;103879.00;15674805;28;20053;-62
2022/03/19 10:47:50;;;;;;;75.75;70.72;;;;;;;13.20;40.42;103881.00;15623311;28;20056;-61
2022/03/19 10:55:22;;;;;;;;;;;;;;;14.08;40.01;103867.72;15611742;28;20068;-62
2022/03/19 11:03:00;;;;;;;83.05;77.78;;;;;;;14.89;39.17;103868.72;15593627;28;19964;-59
2022/03/19 11:10:33;;;;;;;1999.90;999.90;;;;;;;14.04;41.21;103874.16;15611023;28;20055;-60
2022/03/19 11:18:10;;;;;;;1999.90;999.90;;;;;;;16.33;39.42;103856.25;15610890;28;20517;-57
2022/03/19 11:25:48;;;;;;;91.55;84.97;;;;;;;15.10;40.16;103858.22;15609988;28;20054;-60
2022/03/19 11:33:22;;;;;;;1999.90;999.90;;;;;;;15.09;40.60;103854.56;15608194;28;20045;-62
2022/03/19 11:40:56;;;;;;;1999.90;999.90;;;;;;;13.26;44.57;103851.88;15610410;28;20473;-60
2022/03/19 11:48:41;;;;;;;1999.90;999.90;;;;;;;12.91;46.18;103835.69;15662581;28;20119;-60
2022/03/19 11:56:19;;;;;;;1999.90;999.90;;;;;;;12.96;45.90;103842.19;15673028;28;20048;-60
2022/03/19 12:04:14;;;;;;;1999.90;999.90;;;;;;;14.04;44.18;103826.41;15666515;28;20037;-59
2022/03/19 12:12:22;;;;;;;1999.90;999.90;;;;;;;14.40;42.82;103822.47;15664785;28;20041;-60
2022/03/19 12:20:00;;;;;;;1999.90;999.90;;;;;;;13.45;44.96;103826.97;15665852;28;20061;-62
2022/03/19 12:27:32;;;;;;;1999.90;999.90;;;;;;;13.91;43.73;103816.59;15681039;28;20110;-61
2022/03/19 12:35:18;;;;;;;1072.35;567.25;;;;;;;12.03;47.77;103813.91;15656672;28;20102;-58
2022/03/19 12:42:53;;;;;;;1999.90;999.90;;;;;;;13.13;46.10;103797.13;15675574;28;20090;-61
2022/03/19 12:50:27;;;;;;;1999.90;999.90;;;;;;;16.98;38.90;103792.63;15678959;28;20521;-62
2022/03/19 12:58:01;;;;;;;;;;;;;;;16.82;38.08;103779.06;15678195;28;20239;-63
2022/03/19 13:05:34;;;;;;;1999.90;999.90;;;;;;;18.49;35.58;103771.78;15674852;28;19928;-61
2022/03/19 13:13:07;;;;;;;;;;;;;;;18.56;34.42;103763.72;15675755;28;20068;-61
2022/03/19 13:20:40;;;;;;;110.65;101.47;;;;;;;18.73;32.21;103769.59;15653136;28;20424;-61
2022/03/19 13:28:12;;;;;;;60.90;55.95;;;;;;;17.47;31.58;103756.66;15658145;28;20053;-60
2022/03/19 13:35:48;;;;;;;48.55;44.22;;;;;;;17.56;31.66;103746.34;15658815;22;20128;-59
2022/03/19 13:43:22;;;;;;;49.30;44.78;;;;;;;17.83;31.67;103742.81;15594863;28;20511;-55
2022/03/19 13:50:59;;;;;;;;;;;;;;;13.94;37.17;103737.41;15531634;28;20409;-60
2022/03/19 13:58:31;;;;;;;90.50;83.57;;;;;;;12.58;38.58;103717.31;15536689;28;20266;-59
2022/03/19 14:06:05;;;;;;;90.85;83.95;;;;;;;12.68;39.54;103714.56;15523816;28;20141;-58
2022/03/19 14:13:41;;;;;;;1999.90;999.90;;;;;;;12.73;39.88;103712.91;15522859;28;20072;-59
2022/03/19 14:21:14;;;;;;;129.60;120.40;;;;;;;12.66;41.39;103714.00;15527055;28;20537;-60
2022/03/19 14:28:48;;;;;;;1999.90;999.90;;;;;;;12.98;40.92;103698.94;15529877;28;20045;-56
2022/03/19 14:36:22;;;;;;;1999.90;999.90;;;;;;;13.04;41.36;103699.81;15534007;28;20058;-60
2022/03/19 14:43:54;;;;;;;119.07;110.72;;;;;;;12.48;41.34;103694.88;15532532;28;20479;-60
2022/03/19 14:51:28;;;;;;;1532.32;780.00;;;;;;;12.53;41.08;103688.47;15539833;28;20046;-59
2022/03/19 14:59:00;;;;;;;;;;;;;;;12.69;41.35;103681.78;15536845;28;20044;-64
2022/03/19 15:06:34;;;;;;;185.05;170.38;;;;;;;12.38;41.65;103667.66;15542371;28;19971;-60
2022/03/19 15:14:06;;;;;;;1547.38;793.72;;;;;;;12.30;41.90;103671.00;15523038;28;20145;-59
2022/03/19 15:21:40;;;;;;;1109.43;600.88;;;;;;;12.11;41.28;103644.59;15528661;28;20136;-57
2022/03/19 15:29:12;;;;;;;1052.22;548.50;;;;;;;12.29;40.93;103654.44;15535044;28;20043;-57
2022/03/19 15:36:48;;;;;;;1069.93;564.45;;;;;;;12.00;40.78;103646.50;15545194;28;20052;-60
2022/03/19 15:44:20;;;;;;;1999.90;999.90;;;;;;;12.49;40.49;103643.31;15535861;28;20157;-59
2022/03/19 15:51:53;;;;;;;1999.90;999.90;;;;;;;12.18;40.52;103641.53;15536860;28;20076;-61
2022/03/19 15:59:25;;;;;;;1070.75;565.80;;;;;;;11.96;40.28;103634.16;15555150;28;20046;-61
2022/03/19 16:06:59;;;;;;;1058.95;554.63;;;;;;;11.92;39.94;103638.63;15541994;28;20034;-59
2022/03/19 16:14:31;;;;;;;111.30;102.97;;;;;;;11.76;40.05;103645.19;15559422;28;20590;-58
2022/03/19 16:22:05;;;;;;;1999.90;999.90;;;;;;;11.71;39.98;103636.78;15560944;28;20057;-58
2022/03/19 16:29:37;;;;;;;;;;;;;;;11.66;39.40;103636.72;15550650;28;20054;-57
2022/03/19 16:37:10;;;;;;;1999.90;999.90;;;;;;;11.54;39.24;103636.94;15549821;28;20012;-57
2022/03/19 16:44:42;;;;;;;98.97;91.43;;;;;;;11.47;39.13;103644.75;15550730;28;20099;-60
2022/03/19 16:52:16;;;;;;;92.43;84.93;;;;;;;11.37;38.63;103642.72;15534852;28;20042;-59
2022/03/19 16:59:48;;;;;;;;;;;;;;;11.28;37.83;103645.16;15538565;28;20049;-60
2022/03/19 17:07:21;;;;;;;1523.68;771.83;;;;;;;10.96;38.13;103645.16;15547536;28;20009;-59
2022/03/19 17:14:55;;;;;;;580.13;324.08;;;;;;;10.90;38.46;103643.41;15540058;28;21421;-67
2022/03/19 17:22:28;;;;;;;;;;;;;;;10.73;39.15;103644.59;15526039;28;20133;-58
2022/03/19 17:30:01;;;;;;;126.82;117.07;;;;;;;10.61;38.90;103647.56;15556534;28;19921;-59
2022/03/19 17:37:36;;;;;;;1999.90;999.90;;;;;;;10.56;39.05;103650.31;15571207;28;20541;-60
2022/03/19 17:45:14;;;;;;;88.82;81.82;;;;;;;10.46;38.66;103661.34;15539873;28;20046;-53
2022/03/19 17:52:50;;;;;;;76.72;69.97;;;;;;;10.33;37.71;103660.66;15555577;28;20073;-61
2022/03/19 18:00:24;;;;;;;70.78;64.85;;;;;;;10.28;37.10;103680.13;15539532;28;20113;-57
2022/03/19 18:07:58;;;;;;;548.90;294.15;;;;;;;10.26;37.55;103662.78;15554772;28;20109;-54
2022/03/19 18:15:40;;;;;;;1032.82;529.88;;;;;;;10.04;37.20;103670.28;15555101;28;20148;-60
2022/03/19 18:23:18;;;;;;;1517.20;765.67;;;;;;;9.87;37.27;103672.25;15552600;28;20042;-57
2022/03/19 18:31:08;;;;;;;1031.97;529.00;;;;;;;9.74;38.01;103668.72;15553697;28;20454;-57
2022/03/19 18:38:50;;;;;;;1999.90;999.90;;;;;;;9.53;38.04;103672.31;15545751;28;20052;-56
2022/03/19 18:46:23;;;;;;;1999.90;999.90;;;;;;;9.44;37.69;103679.41;15526219;28;20095;-56
2022/03/19 18:53:58;;;;;;;1999.90;999.90;;;;;;;9.28;38.35;103683.91;15543603;28;20041;-59
2022/03/19 19:01:34;;;;;;;1999.90;999.90;;;;;;;9.13;38.66;103691.97;15543262;28;20314;-59
2022/03/19 19:09:07;;;;;;;1999.90;999.90;;;;;;;9.02;38.77;103690.94;15543194;28;20192;-64
2022/03/19 19:16:41;;;;;;;1999.90;999.90;;;;;;;8.85;39.33;103699.25;15542008;28;20054;-59
2022/03/19 19:24:19;;;;;;;1999.90;999.90;;;;;;;8.87;39.65;103699.03;15542147;28;20034;-59
2022/03/19 19:32:04;;;;;;;1999.90;999.90;;;;;;;8.43;39.68;103703.41;15542819;28;20046;-61
2022/03/19 19:39:38;;;;;;;1999.90;999.90;;;;;;;8.33;39.95;103695.66;15529459;28;20148;-59
2022/03/19 19:47:15;;;;;;;1999.90;999.90;;;;;;;8.33;39.97;103690.09;15541801;28;20387;-57
2022/03/19 19:54:50;;;;;;;1999.90;999.90;;;;;;;8.35;39.78;103699.09;15523627;28;20050;-58
2022/03/19 20:02:23;;;;;;;1999.90;999.90;;;;;;;8.07;39.47;103686.75;15557390;28;20088;-60
2022/03/19 20:09:57;;;;;;;1999.90;999.90;;;;;;;8.16;39.32;103691.97;15524877;28;20054;-62
2022/03/19 20:17:32;;;;;;;1999.90;999.90;;;;;;;7.81;39.87;103690.91;15537211;28;20130;-61
2022/03/19 20:25:09;;;;;;;1999.90;999.90;;;;;;;7.69;39.19;103690.03;15538110;28;20050;-62
2022/03/19 20:32:42;;;;;;;1999.90;999.90;;;;;;;7.63;38.39;103682.69;15535720;28;20490;-63
2022/03/19 20:40:20;;;;;;;1999.90;999.90;;;;;;;7.72;37.93;103677.63;15553442;28;20050;-61
2022/03/19 20:47:53;;;;;;;1999.90;999.90;;;;;;;7.60;37.62;103669.25;15546472;28;20503;-61
2022/03/19 20:55:32;;;;;;;1999.90;999.90;;;;;;;7.56;37.82;103664.44;15543824;28;20050;-62
2022/03/19 21:03:06;;;;;;;1999.90;999.90;;;;;;;7.44;37.87;103662.50;15524957;28;20054;-59
2022/03/19 21:11:38;;;;;;;1999.90;999.90;;;;;;;7.36;37.73;103665.63;15503746;28;20084;-61
2022/03/19 21:18:33;;;;;;;1999.90;999.90;;;;;;;7.11;37.18;103665.00;15547922;28;20042;-59
2022/03/19 21:26:08;;;;;;;1999.90;999.90;;;;;;;7.07;37.83;103658.19;15548027;28;20046;-61
2022/03/19 21:33:41;;;;;;;1999.90;999.90;;;;;;;7.00;37.94;103658.31;15546453;28;20402;-60
2022/03/19 21:41:14;;;;;;;1999.90;999.90;;;;;;;6.97;37.37;103660.72;15527124;28;20133;-64
2022/03/19 21:48:46;;;;;;;1999.90;999.90;;;;;;;6.86;37.12;103659.59;15529187;28;20046;-63
2022/03/19 21:56:20;;;;;;;1999.90;999.90;;;;;;;6.69;37.56;103650.25;15543258;28;20052;-60
2022/03/19 22:03:52;;;;;;;1999.90;999.90;;;;;;;6.65;37.15;103647.94;15544513;28;20069;-62
2022/03/19 22:11:26;;;;;;;1999.90;999.90;;;;;;;6.63;36.80;103654.81;15546699;28;20100;-62
2022/03/19 22:18:58;;;;;;;1999.90;999.90;;;;;;;6.55;36.78;103649.59;15527234;28;20042;-62
2022/03/19 22:26:32;;;;;;;1999.90;999.90;;;;;;;6.65;36.52;103645.16;15554138;28;20046;-60
2022/03/19 22:34:05;;;;;;;1999.90;999.90;;;;;;;6.60;36.68;103650.59;15551334;28;20297;-61
2022/03/19 22:41:38;;;;;;;1999.90;999.90;;;;;;;6.31;36.83;103655.03;15523817;28;20138;-61
2022/03/19 22:49:10;;;;;;;1999.90;999.90;;;;;;;6.33;37.23;103650.09;15523600;28;20045;-60
2022/03/19 22:56:46;;;;;;;1999.90;999.90;;;;;;;6.15;38.09;103647.38;15533855;28;20037;-58
2022/03/19 23:04:19;;;;;;;1999.90;999.90;;;;;;;6.14;37.45;103644.78;15508271;28;20058;-57
2022/03/19 23:11:52;;;;;;;1999.90;999.90;;;;;;;6.07;37.42;103642.97;15508577;28;20479;-56
2022/03/19 23:19:24;;;;;;;1999.90;999.90;;;;;;;6.02;37.99;103630.88;15519222;28;20073;-58
2022/03/19 23:27:01;;;;;;;1999.90;999.90;;;;;;;5.86;38.11;103623.16;15518670;28;20045;-60
2022/03/19 23:34:33;;;;;;;1999.90;999.90;;;;;;;6.00;37.96;103619.16;15510061;28;20439;-60
2022/03/19 23:42:07;;;;;;;1999.90;999.90;;;;;;;5.85;38.14;103622.31;15542265;28;20591;-62
2022/03/19 23:49:39;;;;;;;1999.90;999.90;;;;;;;5.61;38.25;103618.50;15524166;28;20152;-60
2022/03/19 23:57:12;;;;;;;1999.90;999.90;;;;;;;5.56;38.93;103621.13;15540064;28;20042;-61
